Time;durP1;ratioP1;P1;durP2;ratioP2;P2;SDS_P1;SDS_P2;PMS_P1;PMS_P2;Temp;Humidity;BMP_temperature;BMP_pressure;BME280_temperature;BME280_humidity;BME280_pressure;Samples;Min_cycle;Max_cycle;Signal;HPM_P1;HPM_P2
2022/03/08 00:02:13;;;;;;;9.63;7.17;;;6.50;50.00;;;9.49;40.49;102604.06;5035312;28;20229;-53
2022/03/08 00:04:40;;;;;;;8.40;6.47;;;6.50;50.20;;;9.45;40.94;102597.38;5035153;28;20683;-55
2022/03/08 00:07:08;;;;;;;10.17;6.23;;;6.50;50.30;;;9.45;40.80;102597.38;5035571;28;20712;-54
2022/03/08 00:09:36;;;;;;;9.87;6.93;;;6.40;50.10;;;9.43;40.64;102598.47;5035472;28;20212;-53
2022/03/08 00:12:05;;;;;;;8.63;6.87;;;6.40;50.20;;;9.39;40.62;102587.34;5035450;28;20217;-55
2022/03/08 00:14:34;;;;;;;8.00;6.70;;;6.40;50.20;;;9.34;40.81;102586.84;5033857;28;20223;-55
2022/03/08 00:17:03;;;;;;;10.40;7.37;;;6.40;50.20;;;9.31;40.94;102584.50;5035067;28;20626;-56
2022/03/08 00:19:31;;;;;;;9.13;7.07;;;6.30;50.30;;;9.27;40.63;102575.16;5035026;28;20603;-53
2022/03/08 00:21:59;;;;;;;9.13;6.67;;;6.30;50.20;;;9.22;41.10;102579.94;5034801;28;20191;-56
2022/03/08 00:24:26;;;;;;;10.23;7.03;;;6.20;50.30;;;9.19;40.71;102572.31;5033729;28;20219;-53
2022/03/08 00:26:54;;;;;;;8.80;6.60;;;6.10;50.20;;;9.16;40.81;102569.94;5035334;28;20558;-52
2022/03/08 00:29:21;;;;;;;7.87;5.83;;;6.10;50.20;;;9.14;40.93;102566.59;5035129;28;20218;-52
2022/03/08 00:31:48;;;;;;;6.97;6.07;;;6.10;50.40;;;9.14;40.83;102565.75;5035367;28;20205;-54
2022/03/08 00:34:16;;;;;;;8.43;6.43;;;6.10;50.40;;;9.12;40.89;102573.75;5034452;28;20231;-56
2022/03/08 00:36:45;;;;;;;8.03;6.63;;;6.00;50.50;;;9.09;41.02;102574.00;5035052;28;20216;-53
2022/03/08 00:39:12;;;;;;;7.97;6.87;;;6.10;50.70;;;9.07;41.13;102573.28;5034798;28;20216;-53
2022/03/08 00:41:40;;;;;;;7.80;6.97;;;6.00;50.50;;;9.04;40.90;102576.13;5034884;28;20679;-53
2022/03/08 00:44:07;;;;;;;8.17;6.17;;;6.00;50.60;;;9.02;41.03;102578.03;5034293;28;20207;-54
2022/03/08 00:46:35;;;;;;;9.00;6.57;;;6.00;50.60;;;9.01;41.04;102573.75;5034558;28;20266;-53
2022/03/08 00:49:03;;;;;;;7.37;6.40;;;5.90;50.60;;;9.00;41.05;102577.34;5034538;28;20191;-55
2022/03/08 00:51:31;;;;;;;8.50;7.27;;;5.90;50.70;;;8.99;41.04;102573.03;5033221;28;20271;-54
2022/03/08 00:53:59;;;;;;;7.67;6.57;;;5.90;50.90;;;8.97;41.35;102574.94;5033071;28;20227;-51
2022/03/08 00:56:27;;;;;;;6.87;6.17;;;5.90;51.00;;;8.96;41.16;102573.28;5034472;28;20216;-52
2022/03/08 00:58:54;;;;;;;8.40;6.07;;;5.90;50.90;;;8.95;41.16;102579.47;5034425;28;20648;-53
2022/03/08 01:01:22;;;;;;;6.77;5.77;;;5.90;50.80;;;8.96;41.41;102577.69;5034513;28;20194;-52
2022/03/08 01:03:49;;;;;;;6.77;5.57;;;5.90;50.80;;;8.96;40.98;102573.28;5034312;28;20215;-51
2022/03/08 01:06:17;;;;;;;9.20;6.57;;;5.90;50.90;;;8.98;41.20;102579.25;5033257;28;20192;-51
2022/03/08 01:08:50;;;;;;;6.70;6.00;;;5.90;51.00;;;8.98;41.18;102576.63;5034228;28;20203;-50
2022/03/08 01:11:18;;;;;;;8.87;6.83;;;5.90;50.90;;;8.96;40.85;102568.03;5034453;28;20249;-51
2022/03/08 01:13:46;;;;;;;9.73;6.80;;;5.90;51.00;;;8.95;41.28;102582.09;5034767;28;20243;-50
2022/03/08 01:16:13;;;;;;;8.73;6.67;;;5.90;51.10;;;8.96;41.08;102572.44;5039316;28;20298;-51
2022/03/08 01:18:41;;;;;;;8.10;6.67;;;5.90;51.00;;;8.94;41.32;102575.16;5040537;28;20188;-50
2022/03/08 01:21:08;;;;;;;10.33;7.43;;;5.90;51.20;;;8.93;41.45;102573.50;5040020;28;20210;-51
2022/03/08 01:23:36;;;;;;;8.50;6.70;;;5.90;51.30;;;8.91;41.56;102578.06;5040863;28;20726;-52
2022/03/08 01:26:03;;;;;;;7.73;6.30;;;5.90;51.50;;;8.89;41.63;102574.69;5035743;28;20188;-52
2022/03/08 01:28:32;;;;;;;9.57;7.00;;;5.80;51.40;;;8.86;42.02;102569.69;5033966;28;20199;-51
2022/03/08 01:30:59;;;;;;;8.43;6.67;;;5.80;51.50;;;8.83;41.64;102567.28;5033956;28;20198;-55
2022/03/08 01:33:27;;;;;;;9.40;6.57;;;5.80;51.60;;;8.78;41.70;102564.19;5032645;28;20690;-53
2022/03/08 01:35:55;;;;;;;9.30;7.20;;;5.70;52.20;;;8.74;41.78;102562.75;5033610;28;20214;-52
2022/03/08 01:38:23;;;;;;;9.13;7.07;;;5.70;51.70;;;8.72;41.98;102564.66;5033637;28;20192;-52
2022/03/08 01:40:51;;;;;;;8.67;5.93;;;5.70;51.90;;;8.69;42.01;102559.63;5033606;28;20201;-51
2022/03/08 01:43:18;;;;;;;8.10;6.83;;;5.60;51.90;;;8.65;42.27;102563.47;5033318;28;20191;-52
2022/03/08 01:45:47;;;;;;;8.57;6.90;;;5.60;52.00;;;8.62;42.23;102553.19;5033558;28;20195;-55
2022/03/08 01:48:15;;;;;;;7.80;6.53;;;5.60;52.20;;;8.59;42.26;102556.03;5033703;28;20248;-51
2022/03/08 01:50:42;;;;;;;8.77;7.57;;;5.50;52.30;;;8.57;42.41;102563.19;5033585;28;20195;-52
2022/03/08 01:53:10;;;;;;;8.87;6.67;;;5.50;52.40;;;8.55;42.44;102558.06;5033255;28;20197;-52
2022/03/08 01:55:37;;;;;;;7.93;6.97;;;5.50;52.60;;;8.49;42.51;102548.03;5033249;28;20224;-51
2022/03/08 01:58:04;;;;;;;8.30;7.00;;;5.50;52.60;;;8.47;42.11;102543.84;5033287;28;20541;-53
2022/03/08 02:00:33;;;;;;;9.57;6.97;;;5.40;52.40;;;8.45;42.50;102546.59;5033287;28;20184;-54
2022/03/08 02:03:02;;;;;;;10.23;6.97;;;5.40;52.50;;;8.41;42.85;102560.06;5031998;28;20198;-52
2022/03/08 02:05:30;;;;;;;9.40;7.10;;;5.40;52.60;;;8.40;42.85;102543.47;5033584;28;20579;-53
2022/03/08 02:07:59;;;;;;;11.57;6.53;;;5.30;53.10;;;8.39;43.16;102546.22;5032481;28;20661;-55
2022/03/08 02:10:26;;;;;;;10.60;7.60;;;5.40;53.30;;;8.39;42.86;102554.09;5033201;28;20203;-52
2022/03/08 02:12:53;;;;;;;8.13;7.23;;;5.40;53.10;;;8.39;42.95;102556.72;5033121;28;20579;-52
2022/03/08 02:15:24;;;;;;;8.60;6.33;;;5.40;53.20;;;8.37;43.13;102542.91;5033270;28;20718;-52
2022/03/08 02:17:54;;;;;;;10.03;7.20;;;5.40;53.30;;;8.37;43.22;102545.50;5033300;28;20191;-50
2022/03/08 02:20:24;;;;;;;10.83;7.07;;;5.40;53.40;;;8.36;43.12;102531.56;5033542;28;20242;-50
2022/03/08 02:22:53;;;;;;;7.73;6.70;;;5.40;53.30;;;8.35;43.07;102544.78;5033057;28;20195;-50
2022/03/08 02:25:23;;;;;;;9.03;7.30;;;5.30;53.30;;;8.33;43.20;102538.81;5037157;28;20572;-50
2022/03/08 02:27:53;;;;;;;10.30;7.33;;;5.30;53.40;;;8.33;43.06;102530.94;5037144;28;20494;-50
2022/03/08 02:30:23;;;;;;;8.93;6.83;;;5.30;53.20;;;8.32;42.96;102530.09;5037096;28;20564;-50
2022/03/08 02:32:50;;;;;;;8.70;6.40;;;5.30;53.20;;;8.33;42.92;102536.19;5037071;28;20188;-50
2022/03/08 02:35:21;;;;;;;10.10;7.40;;;5.30;53.10;;;8.30;43.11;102532.00;5037153;28;20214;-50
2022/03/08 02:37:53;;;;;;;9.93;6.70;;;5.30;53.40;;;8.30;42.83;102539.03;5037203;28;20265;-51
2022/03/08 02:40:24;;;;;;;7.77;6.13;;;5.30;53.10;;;8.29;43.02;102534.75;5037243;28;20202;-51
2022/03/08 02:42:52;;;;;;;11.47;7.17;;;5.20;53.40;;;8.29;43.26;102529.50;5036474;28;20202;-50
2022/03/08 02:45:21;;;;;;;9.30;7.60;;;5.30;53.60;;;8.29;42.86;102524.25;5036660;28;20210;-50
2022/03/08 02:47:49;;;;;;;8.10;6.40;;;5.30;53.40;;;8.27;43.01;102520.91;5036492;28;20667;-50
2022/03/08 02:50:18;;;;;;;8.17;6.57;;;5.20;53.20;;;8.27;42.93;102515.69;5036383;28;20191;-51
2022/03/08 02:52:51;;;;;;;9.40;6.37;;;5.20;53.10;;;8.26;42.99;102513.97;5036323;28;20195;-50
2022/03/08 02:55:23;;;;;;;7.53;6.73;;;5.20;53.00;;;8.25;42.73;102512.31;5036478;28;20212;-50
2022/03/08 02:57:51;;;;;;;8.70;6.70;;;5.20;53.10;;;8.22;43.15;102513.38;5043350;28;20224;-51
2022/03/08 03:00:20;;;;;;;7.93;6.57;;;5.20;53.10;;;8.20;42.99;102507.41;5041005;28;20198;-51
2022/03/08 03:02:48;;;;;;;9.23;6.70;;;5.20;53.20;;;8.19;42.97;102508.34;5036756;28;20202;-52
2022/03/08 03:05:16;;;;;;;9.63;7.17;;;5.20;53.30;;;8.19;43.10;102508.34;5036526;28;20286;-56
2022/03/08 03:07:43;;;;;;;9.77;6.60;;;5.10;53.30;;;8.18;42.98;102502.25;5036222;28;20187;-56
2022/03/08 03:10:13;;;;;;;7.17;6.10;;;5.20;53.30;;;8.18;43.14;102507.50;5036261;28;20199;-54
2022/03/08 03:12:42;;;;;;;7.60;6.70;;;5.10;53.20;;;8.16;42.95;102498.91;5035978;28;20674;-54
2022/03/08 03:15:13;;;;;;;6.90;5.60;;;5.10;53.10;;;8.16;42.69;102500.69;5036134;28;20222;-54
2022/03/08 03:17:41;;;;;;;7.70;6.07;;;5.10;53.10;;;8.16;42.45;102509.41;5034760;28;20224;-53
2022/03/08 03:20:12;;;;;;;7.23;5.73;;;5.10;53.10;;;8.15;42.44;102494.63;5036476;28;20188;-53
2022/03/08 03:22:39;;;;;;;7.80;5.90;;;5.10;53.10;;;8.15;42.76;102491.19;5035932;28;20907;-54
2022/03/08 03:25:09;;;;;;;7.53;6.03;;;5.10;53.20;;;8.14;42.66;102489.50;5035521;28;20227;-55
2022/03/08 03:27:37;;;;;;;8.47;6.73;;;5.10;53.00;;;8.13;42.84;102493.06;5036100;28;20270;-55
2022/03/08 03:30:10;;;;;;;9.13;5.43;;;5.10;53.00;;;8.10;42.55;102494.16;5036207;28;20202;-54
2022/03/08 03:32:38;;;;;;;6.60;5.63;;;5.10;52.90;;;8.11;42.54;102494.97;5036158;28;20192;-51
2022/03/08 03:35:08;;;;;;;6.27;5.67;;;5.10;52.80;;;8.11;42.56;102497.59;5035701;28;20290;-54
2022/03/08 03:37:36;;;;;;;7.37;4.93;;;5.10;53.40;;;8.10;42.30;102494.16;5036857;28;20203;-51
2022/03/08 03:40:05;;;;;;;5.50;4.93;;;5.00;52.80;;;8.08;42.55;102490.78;5036412;28;20194;-53
2022/03/08 03:42:33;;;;;;;8.83;7.50;;;5.10;52.70;;;8.08;42.68;102501.28;5035566;28;20199;-53
2022/03/08 03:45:00;;;;;;;10.90;5.97;;;5.00;52.60;;;8.09;42.49;102496.88;5035991;28;20226;-51
2022/03/08 03:47:30;;;;;;;5.57;4.57;;;5.10;52.60;;;8.10;42.63;102496.78;5035935;28;20217;-53
2022/03/08 03:49:58;;;;;;;6.30;5.03;;;5.00;52.50;;;8.09;42.21;102495.09;5035926;28;20221;-54
2022/03/08 03:52:25;;;;;;;7.83;4.87;;;5.00;52.30;;;8.08;42.16;102505.72;5035176;28;20187;-52
2022/03/08 03:54:53;;;;;;;5.67;5.07;;;5.00;52.40;;;8.07;42.23;102502.25;5034478;28;20233;-53
2022/03/08 03:57:20;;;;;;;7.03;5.47;;;5.00;52.30;;;8.07;42.15;102507.47;5035136;28;20214;-54
2022/03/08 03:59:47;;;;;;;6.80;5.27;;;5.00;52.20;;;8.05;41.89;102506.75;5035395;28;20198;-54
2022/03/08 04:02:15;;;;;;;6.67;4.93;;;5.00;52.30;;;8.03;42.00;102508.63;5035466;28;20278;-53
2022/03/08 04:04:44;;;;;;;8.33;4.90;;;5.00;52.30;;;8.03;42.19;102508.63;5034946;28;20319;-53
2022/03/08 04:07:11;;;;;;;5.67;4.33;;;5.00;52.30;;;8.03;42.24;102502.59;5033399;28;20205;-54
2022/03/08 04:09:39;;;;;;;7.53;5.30;;;5.00;52.20;;;8.02;42.24;102507.00;5034930;28;20326;-55
2022/03/08 04:12:08;;;;;;;6.90;4.47;;;5.00;52.10;;;8.03;42.24;102503.41;5034826;28;20197;-55
2022/03/08 04:14:35;;;;;;;6.50;4.80;;;5.00;52.00;;;8.04;42.09;102509.47;5034742;28;20215;-53
2022/03/08 04:17:04;;;;;;;7.67;4.73;;;5.10;52.00;;;8.05;42.22;102509.38;5034772;28;20218;-51
2022/03/08 04:19:31;;;;;;;6.43;4.67;;;5.10;52.00;;;8.05;42.32;102508.53;5033828;28;20269;-55
2022/03/08 04:22:00;;;;;;;7.07;4.80;;;5.10;52.00;;;8.05;42.11;102512.00;5034870;28;20653;-54
2022/03/08 04:24:27;;;;;;;7.33;4.20;;;5.10;51.70;;;8.03;41.76;102508.63;5034570;28;20219;-55
2022/03/08 04:26:55;;;;;;;4.17;3.77;;;5.10;51.60;;;8.02;41.87;102507.00;5034927;28;20562;-50
2022/03/08 04:29:22;;;;;;;5.67;3.70;;;5.10;51.60;;;8.02;41.93;102514.00;5034925;28;20520;-54
2022/03/08 04:31:49;;;;;;;5.53;4.20;;;5.10;51.60;;;8.01;41.86;102510.53;5035140;28;20661;-51
2022/03/08 04:34:17;;;;;;;5.57;4.30;;;5.00;51.60;;;8.01;41.95;102509.72;5034117;28;20206;-55
2022/03/08 04:36:44;;;;;;;5.13;4.10;;;5.10;51.70;;;8.00;41.71;102508.88;5033837;28;20224;-53
2022/03/08 04:39:13;;;;;;;4.83;4.30;;;5.00;51.60;;;7.98;41.89;102504.72;5034587;28;20195;-51
2022/03/08 04:41:41;;;;;;;5.63;4.83;;;5.00;51.60;;;7.95;42.30;102505.78;5034673;28;20195;-51
2022/03/08 04:44:08;;;;;;;6.17;4.40;;;5.00;51.90;;;7.95;42.28;102508.41;5034118;28;20207;-50
2022/03/08 04:46:40;;;;;;;5.10;4.43;;;5.00;51.90;;;7.95;42.42;102503.16;5032837;28;20240;-54
2022/03/08 04:49:08;;;;;;;6.03;4.07;;;5.00;51.70;;;7.93;41.97;102512.91;5033949;28;20613;-52
2022/03/08 04:51:35;;;;;;;4.33;3.70;;;5.00;51.60;;;7.91;42.20;102509.56;5034544;28;20197;-52
2022/03/08 04:54:03;;;;;;;5.53;4.20;;;5.00;51.90;;;7.90;42.55;102518.38;5032789;28;20216;-52
2022/03/08 04:56:32;;;;;;;7.00;4.47;;;4.90;52.20;;;7.91;42.52;102520.06;5034160;28;20221;-51
2022/03/08 04:58:59;;;;;;;6.23;4.40;;;5.00;52.60;;;7.93;42.78;102518.16;5034283;28;20188;-53
2022/03/08 05:01:26;;;;;;;5.00;3.90;;;4.90;52.40;;;7.93;42.54;102518.16;5034312;28;20211;-54
2022/03/08 05:03:54;;;;;;;5.17;4.20;;;5.00;52.70;;;7.95;42.87;102529.38;5033772;28;20741;-52
2022/03/08 05:06:21;;;;;;;4.30;3.83;;;5.00;52.70;;;7.97;42.50;102524.84;5034183;28;20188;-51
2022/03/08 05:08:48;;;;;;;4.83;3.93;;;5.00;52.60;;;7.98;42.74;102529.16;5033708;28;20229;-51
2022/03/08 05:11:16;;;;;;;6.23;4.17;;;5.00;52.40;;;7.97;42.13;102524.84;5034295;28;20199;-50
2022/03/08 05:13:45;;;;;;;3.97;3.50;;;5.00;52.30;;;7.96;42.14;102523.16;5036110;28;20218;-50
2022/03/08 05:16:12;;;;;;;6.00;4.50;;;5.00;52.30;;;7.95;42.65;102526.75;5039951;28;20196;-50
2022/03/08 05:18:40;;;;;;;6.03;4.20;;;5.00;52.60;;;7.93;42.28;102533.88;5038203;28;20214;-51
2022/03/08 05:21:07;;;;;;;4.77;3.90;;;5.00;52.50;;;7.89;42.25;102526.38;5040134;28;20281;-52
2022/03/08 05:23:34;;;;;;;4.97;3.77;;;4.90;52.20;;;7.84;42.75;102534.56;5040232;28;20225;-51
2022/03/08 05:26:04;;;;;;;4.10;3.70;;;4.90;52.20;;;7.78;42.52;102539.41;5035598;28;20195;-54
2022/03/08 05:28:32;;;;;;;5.70;4.03;;;4.90;52.20;;;7.73;42.35;102537.13;5033373;28;20202;-51
2022/03/08 05:31:01;;;;;;;4.17;3.73;;;4.80;52.20;;;7.68;42.55;102534.00;5033245;28;20664;-53
2022/03/08 05:33:28;;;;;;;5.03;3.90;;;4.80;52.10;;;7.62;42.77;102539.69;5032962;28;20196;-52
2022/03/08 05:35:55;;;;;;;4.87;3.43;;;4.80;52.60;;;7.58;42.49;102534.78;5033435;28;20618;-55
2022/03/08 05:38:23;;;;;;;5.90;3.60;;;4.70;52.00;;;7.56;42.85;102545.34;5033010;28;20295;-51
2022/03/08 05:40:51;;;;;;;4.57;3.33;;;4.70;52.10;;;7.57;42.50;102535.72;5033101;28;20218;-52
2022/03/08 05:43:18;;;;;;;6.60;4.43;;;4.60;52.80;;;7.60;43.04;102535.50;5032965;28;20192;-55
2022/03/08 05:45:45;;;;;;;7.50;4.00;;;4.60;52.40;;;7.59;42.34;102534.66;5033090;28;20200;-56
2022/03/08 05:48:14;;;;;;;5.17;4.10;;;4.60;52.40;;;7.60;42.62;102535.50;5033034;28;20266;-53
2022/03/08 05:50:41;;;;;;;5.73;3.90;;;4.60;52.50;;;7.54;42.44;102531.53;5033427;28;20570;-55
2022/03/08 05:53:09;;;;;;;8.87;4.77;;;4.60;52.50;;;7.51;42.86;102534.41;5032168;28;20218;-55
2022/03/08 05:55:36;;;;;;;5.90;3.87;;;4.60;52.50;;;7.48;42.88;102532.84;5033320;28;20655;-54
2022/03/08 05:58:04;;;;;;;7.87;4.00;;;4.60;52.40;;;7.48;42.82;102529.38;5032397;28;20221;-53
2022/03/08 06:00:31;;;;;;;7.73;5.97;;;4.50;52.40;;;7.48;42.74;102532.84;5031538;28;20188;-53
2022/03/08 06:02:58;;;;;;;4.87;4.10;;;4.50;52.50;;;7.49;43.18;102536.28;5032372;28;20253;-55
2022/03/08 06:05:27;;;;;;;4.77;3.60;;;4.50;53.20;;;7.47;43.32;102530.31;5032830;28;20229;-56
2022/03/08 06:07:54;;;;;;;8.47;4.00;;;4.60;52.70;;;7.48;43.15;102526.75;5032640;28;20188;-55
2022/03/08 06:10:22;;;;;;;4.47;4.00;;;4.50;52.70;;;7.51;43.40;102531.78;5032730;28;20208;-56
2022/03/08 06:12:49;;;;;;;4.37;3.83;;;4.50;52.80;;;7.54;43.25;102542.00;5032540;28;20194;-54
2022/03/08 06:15:16;;;;;;;8.10;4.70;;;4.50;52.90;;;7.57;42.72;102541.81;5031865;28;20293;-56
2022/03/08 06:17:44;;;;;;;8.30;4.57;;;4.60;52.90;;;7.60;43.02;102543.38;5032870;28;20269;-53
2022/03/08 06:20:12;;;;;;;4.97;4.00;;;4.60;52.90;;;7.61;43.14;102539.81;5032505;28;20194;-53
2022/03/08 06:22:41;;;;;;;11.70;4.73;;;4.60;53.00;;;7.65;43.07;102533.41;5032497;28;20202;-53
2022/03/08 06:25:09;;;;;;;6.10;4.20;;;4.60;52.90;;;7.67;42.72;102537.56;5032814;28;20225;-55
2022/03/08 06:27:37;;;;;;;7.37;4.40;;;4.60;52.80;;;7.68;43.21;102539.22;5033051;28;20191;-52
2022/03/08 06:30:07;;;;;;;5.80;4.47;;;4.70;52.70;;;7.69;42.29;102546.16;5032095;28;20233;-52
2022/03/08 06:32:34;;;;;;;9.77;4.60;;;4.70;52.70;;;7.70;42.90;102547.00;5032618;28;20210;-54
2022/03/08 06:35:02;;;;;;;5.73;4.00;;;4.70;52.70;;;7.72;42.69;102547.72;5032422;28;20211;-52
2022/03/08 06:37:29;;;;;;;9.70;4.33;;;4.70;52.70;;;7.71;43.14;102544.25;5032556;28;20287;-57
2022/03/08 06:39:58;;;;;;;6.83;4.37;;;4.70;52.80;;;7.76;42.99;102546.53;5032373;28;20196;-54
2022/03/08 06:42:25;;;;;;;6.50;4.47;;;4.80;52.70;;;7.75;42.73;102545.69;5032109;28;20652;-55
2022/03/08 06:44:53;;;;;;;9.00;4.93;;;4.80;52.50;;;7.68;42.81;102549.72;5032759;28;20222;-54
2022/03/08 06:47:20;;;;;;;6.23;4.20;;;4.80;52.40;;;7.66;42.39;102546.38;5032441;28;20222;-55
2022/03/08 06:49:48;;;;;;;6.43;4.17;;;4.80;52.40;;;7.68;42.38;102554.97;5032276;28;20665;-56
2022/03/08 06:52:15;;;;;;;7.40;4.37;;;4.80;52.40;;;7.65;42.58;102555.19;5047211;28;20323;-53
2022/03/08 06:54:42;;;;;;;6.43;4.57;;;4.80;52.40;;;7.59;43.19;102550.38;5032265;28;20210;-53
2022/03/08 06:57:11;;;;;;;7.20;3.90;;;4.80;52.30;;;7.60;43.14;102557.31;5030930;28;20210;-52
2022/03/08 06:59:38;;;;;;;8.77;4.57;;;4.80;52.40;;;7.66;42.75;102558.63;5031445;28;20195;-56
2022/03/08 07:02:06;;;;;;;12.90;8.43;;;4.80;52.60;;;7.74;42.82;102553.69;5048973;28;20910;-56
2022/03/08 07:04:34;;;;;;;7.77;4.60;;;4.80;52.70;;;7.83;42.56;102551.22;5042969;28;20222;-55
2022/03/08 07:07:02;;;;;;;6.20;4.13;;;4.90;52.80;;;7.95;42.99;102546.88;5044488;28;20195;-55
2022/03/08 07:09:29;;;;;;;6.33;4.37;;;5.00;52.80;;;8.11;43.00;102553.50;5046518;28;20203;-55
2022/03/08 07:11:57;;;;;;;9.90;5.47;;;5.20;52.90;;;8.29;42.34;102551.34;5047178;28;20207;-55
2022/03/08 07:14:25;;;;;;;8.70;4.57;;;5.30;52.70;;;8.53;41.92;102546.88;5039581;28;20326;-52
2022/03/08 07:16:53;;;;;;;12.47;4.40;;;5.50;52.60;;;8.74;42.12;102547.00;5056213;28;20199;-53
2022/03/08 07:19:20;;;;;;;6.43;4.03;;;5.60;52.30;;;8.99;41.67;102536.25;5047031;28;20289;-53
2022/03/08 07:21:51;;;;;;;9.47;6.57;;;5.90;52.10;;;9.30;40.96;102535.53;5052632;28;20204;-54
2022/03/08 07:24:18;;;;;;;8.80;4.97;;;6.10;51.90;;;9.78;40.34;102545.69;5035016;28;20214;-52
2022/03/08 07:26:45;;;;;;;11.43;7.73;;;6.40;51.40;;;10.30;40.21;102543.09;5034221;28;20727;-54
2022/03/08 07:29:13;;;;;;;6.57;4.23;;;6.70;51.20;;;10.71;39.24;102544.88;5034900;28;20187;-52
2022/03/08 07:31:41;;;;;;;6.33;3.97;;;7.20;50.30;;;10.99;38.11;102545.97;5034379;28;20341;-55
2022/03/08 07:34:09;;;;;;;8.27;4.80;;;7.60;49.20;;;11.12;37.77;102546.56;5042118;28;20213;-56
2022/03/08 07:36:38;;;;;;;6.37;4.47;;;7.90;47.60;;;11.22;37.44;102547.44;5052797;28;20198;-55
2022/03/08 07:39:06;;;;;;;8.30;5.27;;;8.10;47.00;;;11.39;37.30;102546.78;5054770;28;20239;-53
2022/03/08 07:41:34;;;;;;;6.23;4.63;;;8.20;46.50;;;11.52;36.90;102547.38;5049678;28;20190;-50
2022/03/08 07:44:03;;;;;;;9.13;4.37;;;8.40;45.70;;;11.74;36.37;102551.63;5042428;28;20706;-52
2022/03/08 07:46:30;;;;;;;5.63;4.13;;;8.60;45.60;;;12.06;36.31;102547.72;5043462;28;20614;-55
2022/03/08 07:49:01;;;;;;;5.67;4.73;;;8.70;45.70;;;12.43;35.56;102549.66;5035658;28;20225;-53
2022/03/08 07:51:49;;;;;;;5.63;4.57;;;8.90;45.50;;;12.79;35.13;102547.03;5039105;28;20273;-53
2022/03/08 07:54:18;;;;;;;8.83;6.30;;;9.20;45.10;;;13.13;35.01;102550.00;5043684;28;20730;-56
2022/03/08 07:56:45;;;;;;;9.47;6.60;;;9.50;44.90;;;13.36;34.42;102542.50;5051198;28;20217;-54
2022/03/08 07:59:13;;;;;;;8.47;5.37;;;9.80;43.80;;;13.60;34.01;102544.59;5015661;28;20641;-55
2022/03/08 08:01:41;;;;;;;8.90;5.80;;;10.10;43.30;;;13.80;33.62;102549.59;5036651;28;20265;-53
2022/03/08 08:04:10;;;;;;;8.57;5.03;;;10.30;42.10;;;14.00;33.12;102547.63;5050967;28;20218;-53
2022/03/08 08:06:38;;;;;;;9.97;6.07;;;10.50;41.10;;;14.14;32.94;102549.75;5044901;28;20576;-58
2022/03/08 08:09:05;;;;;;;5.77;4.77;;;10.60;41.00;;;14.35;32.45;102552.91;5041445;28;20210;-56
2022/03/08 08:11:33;;;;;;;5.40;4.40;;;10.80;40.30;;;14.58;32.60;102554.06;5050237;28;20210;-54
2022/03/08 08:14:00;;;;;;;5.87;4.70;;;11.00;40.50;;;14.82;31.61;102556.03;5051232;28;20214;-53
2022/03/08 08:16:28;;;;;;;9.83;5.03;;;11.20;39.30;;;14.96;31.32;102551.94;5037888;28;20198;-54
2022/03/08 08:18:58;;;;;;;5.10;4.60;;;11.40;38.60;;;15.08;30.71;102550.69;5042884;28;20699;-57
2022/03/08 08:21:28;;;;;;;5.70;4.17;;;11.60;37.50;;;15.21;30.69;102545.78;5046172;28;20198;-56
2022/03/08 08:23:56;;;;;;;6.23;4.70;;;11.80;37.50;;;15.42;30.75;102554.13;5049444;28;20601;-56
2022/03/08 08:26:23;;;;;;;4.87;4.33;;;11.90;38.30;;;15.77;30.84;102553.91;5039243;28;20715;-54
2022/03/08 08:28:51;;;;;;;9.37;5.47;;;12.20;38.10;;;16.20;29.98;102552.78;5034862;28;20206;-54
2022/03/08 08:31:19;;;;;;;6.20;4.97;;;12.40;37.40;;;16.58;29.95;102549.47;5041400;28;20203;-54
2022/03/08 08:33:46;;;;;;;6.03;4.50;;;12.70;37.10;;;17.00;29.40;102551.81;5035369;28;20280;-52
2022/03/08 08:36:14;;;;;;;4.67;4.27;;;13.00;36.70;;;17.31;28.57;102552.69;5043321;28;20198;-57
2022/03/08 08:38:45;;;;;;;5.67;4.40;;;13.40;35.80;;;17.57;28.56;102545.25;5036946;28;20286;-58
2022/03/08 08:41:13;;;;;;;5.50;4.90;;;13.70;35.70;;;18.08;28.19;102551.72;5041662;28;20206;-54
2022/03/08 08:43:41;;;;;;;5.30;4.47;;;14.00;35.40;;;18.63;27.50;102547.91;5043244;28;20690;-56
2022/03/08 08:46:08;;;;;;;5.27;4.40;;;14.40;35.00;;;19.10;26.62;102536.84;5042344;28;20329;-56
2022/03/08 08:48:36;;;;;;;6.97;4.30;;;14.80;33.20;;;19.44;25.99;102537.94;5042531;28;20182;-53
2022/03/08 08:51:04;;;;;;;4.87;4.07;;;15.20;32.30;;;19.79;26.07;102532.75;5040393;28;20640;-55
2022/03/08 08:53:32;;;;;;;6.00;4.80;;;15.60;32.40;;;20.20;25.71;102526.56;5042165;28;20288;-57
2022/03/08 08:56:01;;;;;;;6.27;4.47;;;15.90;31.90;;;20.75;24.57;102524.88;5039869;28;20674;-57
2022/03/08 08:58:29;;;;;;;5.47;4.30;;;16.20;31.20;;;21.27;23.95;102525.16;5036688;28;20214;-58
2022/03/08 09:00:56;;;;;;;5.40;4.53;;;16.60;30.80;;;21.87;24.04;102526.16;5038096;28;20564;-56
2022/03/08 09:03:26;;;;;;;6.33;5.50;;;17.00;31.40;;;22.49;23.43;102518.47;5034737;28;20228;-56
2022/03/08 09:05:55;;;;;;;6.80;4.80;;;17.50;30.70;;;23.21;22.86;102520.13;5046409;28;20198;-58
2022/03/08 09:08:24;;;;;;;10.27;8.00;;;17.90;30.60;;;23.84;22.24;102521.84;5039163;28;20255;-57
2022/03/08 09:10:54;;;;;;;6.53;5.80;;;18.40;29.70;;;24.37;21.45;102516.00;5041046;28;20693;-58
2022/03/08 09:13:25;;;;;;;4.63;4.23;;;19.00;28.20;;;24.49;20.78;102522.31;5042451;28;20197;-54
2022/03/08 09:15:53;;;;;;;5.67;4.60;;;19.30;27.20;;;24.54;20.33;102514.41;5042122;28;20193;-56
2022/03/08 09:18:20;;;;;;;7.07;6.37;;;19.60;26.00;;;24.86;19.69;102518.66;5042595;28;20213;-56
2022/03/08 09:20:48;;;;;;;5.83;5.20;;;19.80;26.20;;;25.08;19.73;102517.09;5040131;28;20205;-59
2022/03/08 09:23:15;;;;;;;11.67;9.90;;;20.10;25.80;;;25.41;19.36;102512.09;5039508;28;20210;-57
2022/03/08 09:25:43;;;;;;;4.87;4.23;;;20.40;25.90;;;25.66;18.93;102508.44;5041754;28;20193;-58
2022/03/08 09:28:10;;;;;;;5.17;4.67;;;20.60;25.20;;;25.82;18.39;102505.06;5039807;28;20194;-56
2022/03/08 09:30:46;;;;;;;9.10;6.03;;;20.80;24.50;;;26.17;18.80;102508.69;5039664;28;20202;-56
2022/03/08 09:33:15;;;;;;;6.47;4.93;;;21.10;25.30;;;26.59;19.04;102502.06;5043811;28;20277;-54
2022/03/08 09:35:45;;;;;;;6.13;4.53;;;21.30;25.50;;;27.00;17.63;102509.16;5046530;28;20241;-56
2022/03/08 09:38:13;;;;;;;3.70;3.40;;;21.60;24.30;;;27.35;18.33;102501.72;5044528;28;20371;-54
2022/03/08 09:40:42;;;;;;;5.67;4.53;;;21.90;25.10;;;27.84;17.59;102502.88;5048071;28;20221;-52
2022/03/08 09:43:09;;;;;;;6.17;4.97;;;22.20;24.50;;;28.22;17.03;102496.72;5047762;28;20761;-56
2022/03/08 09:45:38;;;;;;;4.50;3.53;;;22.50;23.70;;;28.33;16.75;102503.94;5041125;28;20315;-56
2022/03/08 09:48:06;;;;;;;6.97;4.73;;;22.80;23.50;;;28.52;16.28;102496.34;5038691;28;20198;-55
2022/03/08 09:50:34;;;;;;;5.00;4.30;;;23.00;22.80;;;28.60;16.38;102498.63;5059218;28;20571;-56
2022/03/08 09:53:03;;;;;;;4.40;3.60;;;23.20;22.60;;;28.76;16.27;102497.78;5042190;28;20219;-57
2022/03/08 09:55:31;;;;;;;4.10;3.70;;;23.40;22.70;;;28.98;15.28;102498.56;5048283;28;20225;-56
2022/03/08 09:57:58;;;;;;;6.00;4.50;;;23.50;21.40;;;28.80;15.56;102499.72;5042302;28;20230;-56
2022/03/08 10:00:25;;;;;;;6.47;5.33;;;23.50;21.20;;;28.85;15.35;102490.81;5050578;28;20213;-56
2022/03/08 10:02:58;;;;;;;4.33;3.93;;;23.60;21.20;;;28.70;15.83;102496.06;5049283;28;20725;-55
2022/03/08 10:05:43;;;;;;;4.80;3.83;;;23.60;21.30;;;28.95;15.65;102484.69;5038362;28;20272;-57
2022/03/08 10:08:13;;;;;;;6.13;4.30;;;23.70;21.70;;;29.30;15.29;102487.81;5017992;28;20246;-59
2022/03/08 10:10:49;;;;;;;6.13;4.90;;;23.90;21.60;;;29.55;15.13;102495.38;5045980;28;20213;-58
2022/03/08 10:13:42;;;;;;;4.13;3.60;;;24.10;21.40;;;29.61;14.70;102483.47;5047070;28;20218;-55
2022/03/08 10:16:14;;;;;;;7.50;5.00;;;24.20;20.40;;;29.76;15.24;102487.19;5038698;28;20217;-61
2022/03/08 10:18:46;;;;;;;3.73;3.23;;;24.30;20.90;;;29.82;14.30;102483.41;5044488;28;20217;-58
2022/03/08 10:21:30;;;;;;;3.30;3.00;;;24.40;20.10;;;29.87;14.74;102477.22;5040524;28;20194;-57
2022/03/08 10:24:01;;;;;;;4.30;3.90;;;24.60;20.00;;;29.84;14.37;102480.44;5042533;28;20293;-57
2022/03/08 10:26:30;;;;;;;4.03;3.33;;;24.60;20.00;;;30.11;14.34;102475.75;5036910;28;20224;-56
2022/03/08 10:28:59;;;;;;;5.43;3.30;;;24.80;20.10;;;30.33;14.31;102471.03;5043616;28;20612;-59